Time;durP1;ratioP1;P1;durP2;ratioP2;P2;SDS_P1;SDS_P2;PMS_P1;PMS_P2;Temp;Humidity;BMP_temperature;BMP_pressure;BME280_temperature;BME280_humidity;BME280_pressure;Samples;Min_cycle;Max_cycle;Signal;HPM_P1;HPM_P2
2024/01/01 00:02:11;;;;;;;19.30;9.70;;;9.00;99.90;;;;;;5034319;28;20472;-81
2024/01/01 00:04:38;;;;;;;13.33;9.00;;;9.10;99.90;;;;;;5034138;28;20456;-79
2024/01/01 00:07:05;;;;;;;26.07;11.17;;;9.10;99.90;;;;;;5035628;28;20462;-79
2024/01/01 00:09:33;;;;;;;15.40;8.30;;;9.20;99.90;;;;;;5035092;28;20511;-77
2024/01/01 00:12:00;;;;;;;16.80;9.13;;;9.20;99.90;;;;;;5035469;28;20498;-80
2024/01/01 00:14:26;;;;;;;19.77;8.60;;;9.20;99.90;;;;;;5035268;28;20452;-80
2024/01/01 00:16:53;;;;;;;19.90;10.30;;;9.20;99.90;;;;;;5035852;28;20495;-80
2024/01/01 00:19:20;;;;;;;13.17;8.40;;;9.20;99.90;;;;;;5035015;28;20458;-76
2024/01/01 00:21:47;;;;;;;16.73;7.73;;;9.30;99.90;;;;;;5033501;28;20482;-81
2024/01/01 00:24:14;;;;;;;17.13;7.43;;;9.30;99.90;;;;;;5035222;28;20452;-80
2024/01/01 00:26:42;;;;;;;19.13;8.30;;;9.30;99.90;;;;;;5035222;28;20495;-80
2024/01/01 00:29:09;;;;;;;14.90;8.00;;;9.30;99.90;;;;;;5032237;28;20451;-79
2024/01/01 00:31:36;;;;;;;10.93;6.73;;;9.40;99.90;;;;;;5035850;28;20472;-80
2024/01/01 00:34:04;;;;;;;16.40;8.40;;;9.40;99.90;;;;;;5039626;28;20547;-80
2024/01/01 00:36:31;;;;;;;14.27;6.90;;;9.40;99.90;;;;;;5039636;28;20498;-80
2024/01/01 00:38:58;;;;;;;15.10;6.63;;;9.40;99.90;;;;;;5039926;28;20456;-79
2024/01/01 00:41:25;;;;;;;12.83;6.80;;;9.40;99.90;;;;;;5039865;28;20471;-80
2024/01/01 00:43:53;;;;;;;12.30;6.10;;;9.40;99.90;;;;;;5039652;28;20463;-79
2024/01/01 00:46:20;;;;;;;7.33;4.90;;;9.40;99.90;;;;;;5039994;28;21153;-78
2024/01/01 00:48:46;;;;;;;8.60;5.57;;;9.40;99.90;;;;;;5039302;28;20449;-79
2024/01/01 00:51:13;;;;;;;14.63;5.30;;;9.40;99.90;;;;;;5038910;28;20482;-81
2024/01/01 00:53:40;;;;;;;10.80;4.33;;;9.40;99.90;;;;;;5038858;28;20454;-81
2024/01/01 00:56:07;;;;;;;10.30;4.63;;;9.40;99.90;;;;;;5037836;28;20490;-81
2024/01/01 00:58:34;;;;;;;9.80;4.70;;;9.40;99.90;;;;;;5036656;28;20531;-80
2024/01/01 01:01:03;;;;;;;8.93;4.13;;;9.30;99.90;;;;;;5038898;28;20464;-79
2024/01/01 01:03:30;;;;;;;12.53;4.20;;;9.30;99.90;;;;;;5040861;28;20603;-79
2024/01/01 01:05:57;;;;;;;13.63;4.50;;;9.30;99.90;;;;;;5042595;28;20448;-79
2024/01/01 01:08:24;;;;;;;8.80;4.80;;;9.20;99.90;;;;;;5045918;28;21092;-79
2024/01/01 01:10:53;;;;;;;10.53;4.87;;;9.20;99.90;;;;;;5043532;28;20479;-80
2024/01/01 01:13:20;;;;;;;12.23;4.30;;;9.20;99.90;;;;;;5043272;28;20451;-79
2024/01/01 01:15:46;;;;;;;7.30;3.87;;;9.20;99.90;;;;;;5039718;28;20571;-81
2024/01/01 01:18:15;;;;;;;8.70;5.33;;;9.20;99.90;;;;;;5038281;28;20455;-81
2024/01/01 01:20:41;;;;;;;7.70;3.50;;;9.20;99.90;;;;;;5037872;28;20904;-82
2024/01/01 01:23:09;;;;;;;11.90;3.90;;;9.20;99.90;;;;;;5036822;28;21218;-81
2024/01/01 01:25:36;;;;;;;9.47;4.20;;;9.20;99.90;;;;;;5035292;28;20463;-82
2024/01/01 01:28:03;;;;;;;11.80;4.20;;;9.10;99.90;;;;;;5034648;28;20748;-82
2024/01/01 01:30:30;;;;;;;8.33;4.17;;;9.10;99.90;;;;;;5037506;28;20522;-82
2024/01/01 01:32:57;;;;;;;12.20;5.40;;;9.00;99.90;;;;;;5037477;28;21177;-80
2024/01/01 01:35:25;;;;;;;17.30;8.73;;;9.10;99.90;;;;;;5037882;28;20460;-82
2024/01/01 01:37:52;;;;;;;28.70;9.47;;;9.10;99.90;;;;;;5032644;28;20455;-81
2024/01/01 01:40:19;;;;;;;14.90;7.60;;;9.10;99.90;;;;;;5037748;28;20453;-81
2024/01/01 01:42:46;;;;;;;9.13;4.60;;;9.10;99.90;;;;;;5037192;28;20502;-82
2024/01/01 01:45:13;;;;;;;15.70;6.50;;;9.10;99.90;;;;;;5038948;28;20502;-80
2024/01/01 01:47:40;;;;;;;12.50;5.50;;;9.10;99.90;;;;;;5037687;28;20448;-80
2024/01/01 01:50:08;;;;;;;8.80;4.67;;;9.10;99.90;;;;;;5037941;28;20535;-80
2024/01/01 01:52:38;;;;;;;8.07;3.50;;;9.10;99.90;;;;;;5035927;28;20482;-80
2024/01/01 01:55:06;;;;;;;4.07;2.20;;;8.90;99.90;;;;;;5038608;28;20464;-80
2024/01/01 01:57:34;;;;;;;11.90;3.60;;;8.90;99.90;;;;;;5035402;28;20936;-79
2024/01/01 02:00:01;;;;;;;9.27;2.87;;;8.80;99.90;;;;;;5038080;28;20469;-81
2024/01/01 02:02:29;;;;;;;7.90;2.23;;;8.80;99.90;;;;;;5037081;28;20467;-81
2024/01/01 02:04:56;;;;;;;8.13;2.80;;;8.80;99.90;;;;;;5037361;28;20462;-80
2024/01/01 02:07:22;;;;;;;5.60;2.60;;;8.80;99.90;;;;;;5036718;28;20475;-81
2024/01/01 02:09:50;;;;;;;4.23;2.20;;;8.80;99.90;;;;;;5030165;28;20462;-79
2024/01/01 02:12:17;;;;;;;6.83;1.63;;;8.90;99.90;;;;;;5035651;28;20485;-80
2024/01/01 02:14:45;;;;;;;5.90;2.13;;;8.90;99.90;;;;;;5035680;28;20465;-80
2024/01/01 02:17:11;;;;;;;7.37;2.30;;;8.90;99.90;;;;;;5035054;28;20496;-81
2024/01/01 02:19:38;;;;;;;9.87;1.87;;;8.90;99.90;;;;;;5035942;28;20446;-81
2024/01/01 02:22:05;;;;;;;7.30;2.10;;;8.90;99.90;;;;;;5035513;28;20465;-81
2024/01/01 02:24:33;;;;;;;6.60;2.00;;;8.90;99.90;;;;;;5035092;28;20472;-80
2024/01/01 02:27:00;;;;;;;4.40;1.60;;;8.90;99.90;;;;;;5035791;28;20452;-81
2024/01/01 02:29:27;;;;;;;6.17;2.20;;;9.00;99.90;;;;;;5036327;28;20451;-81
2024/01/01 02:31:53;;;;;;;10.23;1.60;;;9.10;99.90;;;;;;5036348;28;20510;-81
2024/01/01 02:34:22;;;;;;;8.37;2.17;;;9.10;99.90;;;;;;5036755;28;20535;-81
2024/01/01 02:36:48;;;;;;;9.23;3.40;;;9.00;99.90;;;;;;5037270;28;20540;-82
2024/01/01 02:39:15;;;;;;;5.30;1.60;;;8.70;99.90;;;;;;5042357;28;20450;-83
2024/01/01 02:41:43;;;;;;;9.73;1.83;;;8.60;99.90;;;;;;5043654;28;20480;-83
2024/01/01 02:44:10;;;;;;;6.70;1.93;;;8.30;99.90;;;;;;5041418;28;20467;-83
2024/01/01 02:46:37;;;;;;;4.83;1.67;;;8.10;99.90;;;;;;5043996;28;20515;-80
2024/01/01 02:49:04;;;;;;;6.87;1.73;;;7.90;99.90;;;;;;5043325;28;20491;-80
2024/01/01 02:51:31;;;;;;;11.57;2.50;;;7.80;99.90;;;;;;5044740;28;20481;-81
2024/01/01 02:53:57;;;;;;;5.60;1.47;;;7.60;99.90;;;;;;5035535;28;20454;-81
2024/01/01 02:56:25;;;;;;;5.67;1.60;;;7.40;99.90;;;;;;5036706;28;20854;-81
2024/01/01 02:58:54;;;;;;;3.30;1.33;;;7.20;99.90;;;;;;5033657;28;20452;-81
2024/01/01 03:01:21;;;;;;;3.70;0.97;;;7.10;99.90;;;;;;5039637;28;20561;-81
2024/01/01 03:03:47;;;;;;;4.43;1.23;;;7.00;99.90;;;;;;5038749;28;20481;-83
2024/01/01 03:06:18;;;;;;;2.23;1.43;;;6.80;99.90;;;;;;5038811;28;20456;-82
2024/01/01 03:08:45;;;;;;;4.07;1.60;;;6.90;99.90;;;;;;5037360;28;20202;-82
2024/01/01 03:11:11;;;;;;;8.43;1.90;;;6.80;99.90;;;;;;5038178;28;20469;-81
2024/01/01 03:13:39;;;;;;;4.80;1.27;;;6.70;99.90;;;;;;5032765;28;20457;-81
2024/01/01 03:16:08;;;;;;;3.43;1.47;;;6.80;99.90;;;;;;5033282;28;20520;-82
2024/01/01 03:18:35;;;;;;;3.20;1.50;;;6.80;99.90;;;;;;5033884;28;20449;-83
2024/01/01 03:21:01;;;;;;;3.30;1.60;;;6.80;99.90;;;;;;5032367;28;20472;-82
2024/01/01 03:23:28;;;;;;;11.33;1.83;;;6.80;99.90;;;;;;5035394;28;20634;-79
2024/01/01 03:25:55;;;;;;;5.47;1.60;;;6.80;99.90;;;;;;5035506;28;20484;-83
2024/01/01 03:28:22;;;;;;;7.30;2.00;;;6.80;99.90;;;;;;5035663;28;20463;-81
2024/01/01 03:30:48;;;;;;;5.80;1.60;;;6.80;99.90;;;;;;5035730;28;20845;-80
2024/01/01 03:33:16;;;;;;;7.67;1.90;;;6.90;99.90;;;;;;5034965;28;20457;-81
2024/01/01 03:35:43;;;;;;;4.13;1.63;;;6.90;99.90;;;;;;5035966;28;20468;-81
2024/01/01 03:38:10;;;;;;;13.40;1.93;;;6.90;99.90;;;;;;5036279;28;21027;-79
2024/01/01 03:40:37;;;;;;;9.93;2.30;;;6.90;99.90;;;;;;5036344;28;20456;-82
2024/01/01 03:43:04;;;;;;;13.10;2.30;;;7.00;99.90;;;;;;5035288;28;20844;-80
2024/01/01 03:45:31;;;;;;;8.60;3.10;;;7.00;99.90;;;;;;5036049;28;20533;-80
2024/01/01 03:47:57;;;;;;;8.13;2.60;;;7.00;99.90;;;;;;5034960;28;20453;-81
2024/01/01 03:50:26;;;;;;;9.50;2.50;;;7.00;99.90;;;;;;5034763;28;20464;-79
2024/01/01 03:52:53;;;;;;;10.97;2.57;;;7.00;99.90;;;;;;5035095;28;20443;-79
2024/01/01 03:55:23;;;;;;;4.57;2.20;;;7.00;99.90;;;;;;5035292;28;20449;-80
2024/01/01 03:57:49;;;;;;;10.97;2.13;;;7.10;99.90;;;;;;5035629;28;20493;-82
2024/01/01 04:00:17;;;;;;;6.33;1.70;;;7.10;99.90;;;;;;5035931;28;20469;-81
2024/01/01 04:02:46;;;;;;;9.43;2.97;;;7.10;99.90;;;;;;5036586;28;20511;-81
2024/01/01 04:05:13;;;;;;;10.13;2.83;;;7.10;99.90;;;;;;5037499;28;20462;-82
2024/01/01 04:07:42;;;;;;;10.90;2.73;;;7.10;99.90;;;;;;5038768;28;20983;-81
2024/01/01 04:10:10;;;;;;;11.33;2.70;;;7.20;99.90;;;;;;5037269;28;21053;-82
2024/01/01 04:12:37;;;;;;;5.77;1.80;;;7.20;99.90;;;;;;5038418;28;20508;-83
2024/01/01 04:15:05;;;;;;;13.10;2.60;;;7.30;99.90;;;;;;5038689;28;20461;-83
2024/01/01 04:17:32;;;;;;;8.27;1.87;;;7.30;99.90;;;;;;5038267;28;20490;-82
2024/01/01 04:19:59;;;;;;;9.33;2.47;;;7.20;99.90;;;;;;5037437;28;20548;-80
2024/01/01 04:22:25;;;;;;;9.77;2.27;;;7.30;99.90;;;;;;5034320;28;21070;-82
2024/01/01 04:24:54;;;;;;;8.60;2.30;;;7.30;99.90;;;;;;5035356;28;20450;-80
2024/01/01 04:27:20;;;;;;;8.60;1.80;;;7.40;99.90;;;;;;5037839;28;20519;-79
2024/01/01 04:29:47;;;;;;;14.03;2.20;;;7.40;99.90;;;;;;5037028;28;21006;-81
2024/01/01 04:32:14;;;;;;;5.20;2.00;;;7.50;99.90;;;;;;5031687;28;20503;-83
2024/01/01 04:34:41;;;;;;;12.53;2.63;;;7.60;99.90;;;;;;5037183;28;20549;-81
2024/01/01 04:37:08;;;;;;;10.27;2.03;;;7.60;99.90;;;;;;5037482;28;20490;-82
2024/01/01 04:39:34;;;;;;;9.03;2.03;;;7.70;99.90;;;;;;5035006;28;20449;-81
2024/01/01 04:42:03;;;;;;;6.80;1.80;;;7.70;99.90;;;;;;5036463;28;21041;-83
2024/01/01 04:44:30;;;;;;;6.17;2.13;;;7.70;99.90;;;;;;5036520;28;20449;-80
2024/01/01 04:46:57;;;;;;;8.47;1.97;;;7.70;99.90;;;;;;5035994;28;20957;-80
2024/01/01 04:49:26;;;;;;;12.87;3.90;;;7.70;99.90;;;;;;5031505;28;20457;-80
2024/01/01 04:51:53;;;;;;;14.00;2.77;;;7.70;99.90;;;;;;5037629;28;20493;-80
2024/01/01 04:54:20;;;;;;;5.00;1.60;;;7.70;99.90;;;;;;5038441;28;20454;-81
2024/01/01 04:56:46;;;;;;;8.17;2.20;;;7.80;99.90;;;;;;5038342;28;20498;-82
2024/01/01 04:59:14;;;;;;;7.73;2.13;;;7.80;99.90;;;;;;5037405;28;20491;-80
2024/01/01 05:01:41;;;;;;;6.27;1.80;;;7.90;99.90;;;;;;5035526;28;20478;-83
2024/01/01 05:04:08;;;;;;;6.40;3.07;;;7.90;99.90;;;;;;5036030;28;20565;-81
2024/01/01 05:06:35;;;;;;;7.37;2.30;;;7.90;99.90;;;;;;5034749;28;20947;-82
2024/01/01 05:09:02;;;;;;;9.53;2.67;;;7.90;99.90;;;;;;5037116;28;20461;-81
2024/01/01 05:11:30;;;;;;;7.47;2.63;;;7.90;99.90;;;;;;5037986;28;20469;-81
2024/01/01 05:13:57;;;;;;;8.03;2.77;;;8.00;99.90;;;;;;5037224;28;20450;-79
2024/01/01 05:16:25;;;;;;;9.93;2.87;;;8.00;99.90;;;;;;5037379;28;20962;-79
2024/01/01 05:18:52;;;;;;;12.17;2.23;;;8.10;99.90;;;;;;5036300;28;20979;-80
2024/01/01 05:21:19;;;;;;;12.97;1.77;;;8.10;99.90;;;;;;5036349;28;20490;-82
2024/01/01 05:23:45;;;;;;;7.70;2.87;;;8.10;99.90;;;;;;5038535;28;20469;-80
2024/01/01 05:26:12;;;;;;;13.17;2.40;;;8.10;99.90;;;;;;5038175;28;20463;-82
2024/01/01 05:28:39;;;;;;;7.00;1.77;;;8.10;99.90;;;;;;5038890;28;20522;-82
2024/01/01 05:31:06;;;;;;;10.43;2.30;;;8.20;99.90;;;;;;5039047;28;20476;-82
2024/01/01 05:33:34;;;;;;;9.93;2.67;;;8.20;99.90;;;;;;5040118;28;20446;-79
2024/01/01 05:36:01;;;;;;;8.47;2.73;;;8.20;99.90;;;;;;5039451;28;20486;-80
2024/01/01 05:38:27;;;;;;;5.77;2.43;;;8.20;99.90;;;;;;5039319;28;20489;-80
2024/01/01 05:40:54;;;;;;;7.90;1.80;;;8.20;99.90;;;;;;5038016;28;21006;-80
2024/01/01 05:43:22;;;;;;;13.07;2.73;;;8.20;99.90;;;;;;5038484;28;20465;-82
2024/01/01 05:45:49;;;;;;;6.67;1.97;;;8.20;99.90;;;;;;5038338;28;20461;-79
2024/01/01 05:48:16;;;;;;;7.00;2.13;;;8.20;99.90;;;;;;5037876;28;20445;-81
2024/01/01 05:50:46;;;;;;;14.20;2.87;;;8.20;99.90;;;;;;5038177;28;20459;-80
2024/01/01 05:53:13;;;;;;;7.43;1.53;;;8.30;99.90;;;;;;5038475;28;20462;-81
2024/01/01 05:55:40;;;;;;;7.80;1.90;;;8.30;99.90;;;;;;5037671;28;20464;-83
2024/01/01 05:58:07;;;;;;;7.23;1.60;;;8.30;99.90;;;;;;5039170;28;20500;-81
2024/01/01 06:00:36;;;;;;;12.47;3.03;;;8.40;99.90;;;;;;5036404;28;20489;-81
2024/01/01 06:03:04;;;;;;;6.83;1.70;;;8.40;99.90;;;;;;5038842;28;20442;-82
2024/01/01 06:05:33;;;;;;;8.10;2.07;;;8.40;99.90;;;;;;5038715;28;20534;-81
2024/01/01 06:08:02;;;;;;;12.40;2.80;;;8.40;99.90;;;;;;5038876;28;20452;-81
2024/01/01 06:10:29;;;;;;;8.00;2.03;;;8.40;99.90;;;;;;5039128;28;20488;-81
2024/01/01 06:12:57;;;;;;;7.07;1.97;;;8.40;99.90;;;;;;5039109;28;20458;-82
2024/01/01 06:15:24;;;;;;;10.47;2.13;;;8.40;99.90;;;;;;5041344;28;20460;-83
2024/01/01 06:17:50;;;;;;;12.80;2.70;;;8.40;99.90;;;;;;5041061;28;20486;-83
2024/01/01 06:20:17;;;;;;;15.83;4.70;;;8.20;99.90;;;;;;5042439;28;20550;-83
2024/01/01 06:22:44;;;;;;;9.53;2.17;;;8.10;99.90;;;;;;5042857;28;20469;-82
2024/01/01 06:25:12;;;;;;;9.33;2.27;;;8.00;99.90;;;;;;5042843;28;20527;-82
2024/01/01 06:27:39;;;;;;;12.90;3.10;;;7.90;99.90;;;;;;5042237;28;20443;-82
2024/01/01 06:30:07;;;;;;;13.03;2.90;;;7.90;99.90;;;;;;5053058;28;20488;-82
2024/01/01 06:32:34;;;;;;;4.23;1.50;;;7.90;99.90;;;;;;5051534;28;20466;-81
2024/01/01 06:35:01;;;;;;;8.23;2.07;;;7.90;99.90;;;;;;5051609;28;20548;-82
2024/01/01 06:37:27;;;;;;;5.03;1.80;;;8.00;99.90;;;;;;5037975;28;20490;-81
2024/01/01 06:39:54;;;;;;;17.03;5.37;;;8.10;99.90;;;;;;5039107;28;20455;-81
2024/01/01 06:42:22;;;;;;;7.90;2.40;;;8.20;99.90;;;;;;5038172;28;20473;-80
2024/01/01 06:44:49;;;;;;;16.90;3.50;;;8.20;99.90;;;;;;5037423;28;20456;-82
2024/01/01 06:47:16;;;;;;;6.80;1.83;;;8.30;99.90;;;;;;5037021;28;20451;-83
2024/01/01 06:49:43;;;;;;;9.97;2.93;;;8.30;99.90;;;;;;5036554;28;20458;-80
2024/01/01 06:52:10;;;;;;;8.47;2.43;;;8.30;99.90;;;;;;5037548;28;20556;-81
2024/01/01 06:54:39;;;;;;;9.80;1.93;;;8.40;99.90;;;;;;5037939;28;20519;-80
2024/01/01 06:57:06;;;;;;;10.23;2.47;;;8.40;99.90;;;;;;5037756;28;20490;-82
2024/01/01 06:59:36;;;;;;;5.67;2.20;;;8.30;99.90;;;;;;5037768;28;20530;-80
2024/01/01 07:02:03;;;;;;;10.33;2.40;;;8.20;99.90;;;;;;5038140;28;20477;-82
2024/01/01 07:04:29;;;;;;;20.50;2.53;;;8.10;99.90;;;;;;5037929;28;20548;-82
2024/01/01 07:06:57;;;;;;;9.60;2.30;;;8.10;99.90;;;;;;5038650;28;20442;-81
2024/01/01 07:09:24;;;;;;;6.50;2.20;;;8.10;99.90;;;;;;5038615;28;20463;-81
2024/01/01 07:11:51;;;;;;;8.80;1.83;;;7.90;99.90;;;;;;5038822;28;20472;-82
2024/01/01 07:14:17;;;;;;;14.47;2.50;;;7.80;99.90;;;;;;5039000;28;20966;-80
2024/01/01 07:16:46;;;;;;;7.90;1.17;;;7.70;99.90;;;;;;5038981;28;20462;-79
2024/01/01 07:19:12;;;;;;;5.17;1.90;;;7.60;99.90;;;;;;5038126;28;20932;-82
2024/01/01 07:21:39;;;;;;;7.80;1.80;;;7.50;99.90;;;;;;5039379;28;20990;-81
2024/01/01 07:24:06;;;;;;;9.40;2.20;;;7.50;99.90;;;;;;5039783;28;21100;-81
2024/01/01 07:26:33;;;;;;;7.73;2.10;;;7.40;99.90;;;;;;5040652;28;20522;-82
2024/01/01 07:29:00;;;;;;;7.23;1.50;;;7.30;99.90;;;;;;5040289;28;20441;-81
2024/01/01 07:31:27;;;;;;;8.23;2.10;;;7.30;99.90;;;;;;5040633;28;20469;-81
2024/01/01 07:33:55;;;;;;;4.40;1.63;;;7.30;99.90;;;;;;5035811;28;21004;-81
2024/01/01 07:36:22;;;;;;;6.00;1.57;;;7.30;99.90;;;;;;5041765;28;20471;-81
2024/01/01 07:38:49;;;;;;;4.80;1.47;;;7.20;99.90;;;;;;5039567;28;20592;-83
2024/01/01 07:41:16;;;;;;;11.73;2.03;;;7.30;99.90;;;;;;5038070;28;20989;-81
2024/01/01 07:43:42;;;;;;;6.10;2.30;;;7.30;99.90;;;;;;5039347;28;20883;-79
2024/01/01 07:46:10;;;;;;;8.60;2.27;;;7.30;99.90;;;;;;5038166;28;20448;-79
2024/01/01 07:48:37;;;;;;;12.40;2.27;;;7.30;99.90;;;;;;5037045;28;20485;-78
2024/01/01 07:51:05;;;;;;;7.37;2.20;;;7.30;99.90;;;;;;5039275;28;20555;-80
2024/01/01 07:53:32;;;;;;;5.37;1.83;;;7.30;99.90;;;;;;5039143;28;20841;-79
2024/01/01 07:56:01;;;;;;;6.23;1.80;;;7.30;99.90;;;;;;5039440;28;20823;-79
2024/01/01 07:58:28;;;;;;;5.17;2.00;;;7.40;99.90;;;;;;5038690;28;20490;-78
2024/01/01 08:00:55;;;;;;;3.90;1.40;;;7.50;99.90;;;;;;5036653;28;20481;-79
2024/01/01 08:03:21;;;;;;;5.60;1.97;;;7.60;99.90;;;;;;5036807;28;20445;-79
2024/01/01 08:05:48;;;;;;;8.03;1.70;;;7.70;99.90;;;;;;5036646;28;20454;-79
2024/01/01 08:08:16;;;;;;;6.20;1.87;;;7.70;99.90;;;;;;5034889;28;20536;-81
2024/01/01 08:10:44;;;;;;;7.90;2.10;;;7.70;99.90;;;;;;5036281;28;20476;-80
2024/01/01 08:13:11;;;;;;;9.33;2.07;;;7.60;99.90;;;;;;5038617;28;20453;-80
2024/01/01 08:15:38;;;;;;;6.40;1.57;;;7.70;99.90;;;;;;5034775;28;20459;-81
2024/01/01 08:18:06;;;;;;;6.17;1.50;;;7.70;99.90;;;;;;5035486;28;20485;-80
2024/01/01 08:20:33;;;;;;;4.37;1.63;;;7.70;99.90;;;;;;5036119;28;20456;-80
2024/01/01 08:22:59;;;;;;;6.13;2.00;;;7.50;99.90;;;;;;5039817;28;20478;-80
2024/01/01 08:25:27;;;;;;;5.70;1.70;;;7.50;99.90;;;;;;5039501;28;20965;-80
2024/01/01 08:27:54;;;;;;;5.50;1.80;;;7.40;99.90;;;;;;5036496;28;20463;-80
2024/01/01 08:30:21;;;;;;;6.97;1.73;;;7.40;99.90;;;;;;5039085;28;20449;-81
2024/01/01 08:32:48;;;;;;;8.63;2.40;;;7.30;99.90;;;;;;5038153;28;21085;-79
2024/01/01 08:35:15;;;;;;;12.43;6.77;;;7.30;99.90;;;;;;5038550;28;20548;-80
2024/01/01 08:37:43;;;;;;;4.93;2.40;;;7.30;99.90;;;;;;5039103;28;20532;-79
2024/01/01 08:40:11;;;;;;;9.53;1.50;;;7.30;99.90;;;;;;5039298;28;20491;-79
2024/01/01 08:42:39;;;;;;;8.03;1.67;;;7.30;99.90;;;;;;5038915;28;20474;-81
2024/01/01 08:45:07;;;;;;;6.80;1.50;;;7.40;99.90;;;;;;5037844;28;20451;-81
2024/01/01 08:47:34;;;;;;;5.83;1.67;;;7.40;99.90;;;;;;5034041;28;20441;-81
2024/01/01 08:50:01;;;;;;;9.80;2.30;;;7.40;99.90;;;;;;5037691;28;20855;-80
2024/01/01 08:52:27;;;;;;;3.00;1.10;;;7.40;99.90;;;;;;5037443;28;20465;-80
2024/01/01 08:54:54;;;;;;;3.73;1.10;;;7.50;99.90;;;;;;5035713;28;20444;-81
2024/01/01 08:57:23;;;;;;;3.50;1.33;;;7.40;99.90;;;;;;5040342;28;20845;-81
2024/01/01 08:59:51;;;;;;;5.97;1.30;;;7.50;99.90;;;;;;5039519;28;20542;-80
2024/01/01 09:02:18;;;;;;;4.70;1.27;;;7.50;99.90;;;;;;5041013;28;20475;-80
2024/01/01 09:04:45;;;;;;;4.50;1.20;;;7.60;99.90;;;;;;5040828;28;20946;-79
2024/01/01 09:07:11;;;;;;;4.07;1.33;;;7.60;99.90;;;;;;5040516;28;20826;-79
2024/01/01 09:09:38;;;;;;;6.87;2.03;;;7.70;99.90;;;;;;5039096;28;20459;-81
2024/01/01 09:12:06;;;;;;;4.20;1.17;;;7.70;99.90;;;;;;5040723;28;20474;-81
2024/01/01 09:14:34;;;;;;;4.90;2.10;;;7.80;99.90;;;;;;5040147;28;20539;-81
2024/01/01 09:17:03;;;;;;;4.40;1.23;;;7.80;99.90;;;;;;5035815;28;21025;-80
2024/01/01 09:19:30;;;;;;;10.40;1.87;;;7.90;99.90;;;;;;5039355;28;21036;-80
2024/01/01 09:21:57;;;;;;;9.13;1.40;;;7.90;99.90;;;;;;5040414;28;20847;-80
2024/01/01 09:24:24;;;;;;;4.13;1.33;;;8.00;99.90;;;;;;5040850;28;20447;-79
2024/01/01 09:26:51;;;;;;;6.47;1.50;;;8.00;99.90;;;;;;5037622;28;20962;-80
2024/01/01 09:29:18;;;;;;;4.67;1.33;;;8.00;99.90;;;;;;5044770;28;20454;-78
2024/01/01 09:31:51;;;;;;;6.23;1.10;;;8.10;99.90;;;;;;5044614;28;20471;-80
2024/01/01 09:34:19;;;;;;;3.67;1.10;;;8.20;99.90;;;;;;5038065;28;20828;-80
2024/01/01 09:36:45;;;;;;;4.30;1.53;;;8.20;99.90;;;;;;5039094;28;20532;-81
2024/01/01 09:39:12;;;;;;;6.90;1.80;;;8.30;99.90;;;;;;5040103;28;21004;-79
2024/01/01 09:41:41;;;;;;;4.13;1.30;;;8.30;99.90;;;;;;5042237;28;20478;-80
2024/01/01 09:44:10;;;;;;;3.70;1.20;;;8.30;99.90;;;;;;5040872;28;20984;-79
2024/01/01 09:46:37;;;;;;;5.67;1.30;;;8.20;99.90;;;;;;5037837;28;21173;-80
2024/01/01 09:49:04;;;;;;;6.10;2.37;;;8.20;99.90;;;;;;5038532;28;20519;-80
2024/01/01 09:51:38;;;;;;;3.20;1.20;;;8.20;99.90;;;;;;5043492;28;20475;-79
2024/01/01 09:54:05;;;;;;;3.40;1.20;;;8.30;99.90;;;;;;5039930;28;20898;-79
2024/01/01 09:56:32;;;;;;;6.40;1.33;;;8.30;99.90;;;;;;5032867;28;20455;-80
2024/01/01 09:58:59;;;;;;;5.00;1.43;;;8.20;99.90;;;;;;5037040;28;20572;-79
2024/01/01 10:01:25;;;;;;;7.73;1.20;;;8.20;99.90;;;;;;5036679;28;20506;-82
2024/01/01 10:04:06;;;;;;;2.10;1.00;;;8.20;99.90;;;;;;5037488;28;20459;-79
2024/01/01 10:06:36;;;;;;;4.87;1.47;;;8.10;99.90;;;;;;5036595;28;20989;-79
2024/01/01 10:09:06;;;;;;;5.50;1.33;;;8.10;99.90;;;;;;5038197;28;20550;-81
2024/01/01 10:11:34;;;;;;;5.57;1.90;;;8.20;99.90;;;;;;5039694;28;20471;-79
2024/01/01 10:14:04;;;;;;;4.90;1.47;;;8.20;99.90;;;;;;5047116;28;20564;-80
2024/01/01 10:16:31;;;;;;;5.80;1.70;;;8.20;99.90;;;;;;5048802;28;20462;-79
2024/01/01 10:18:59;;;;;;;3.67;1.63;;;8.20;99.90;;;;;;5044800;28;20486;-79
2024/01/01 10:21:28;;;;;;;5.20;1.40;;;8.20;99.90;;;;;;5040975;28;20514;-80
2024/01/01 10:24:00;;;;;;;5.73;1.47;;;8.40;99.90;;;;;;5041186;28;20453;-82
2024/01/01 10:26:26;;;;;;;5.40;1.60;;;8.40;99.90;;;;;;5037709;28;20483;-83
2024/01/01 10:28:53;;;;;;;6.80;1.57;;;8.30;99.90;;;;;;5041038;28;20506;-82
2024/01/01 10:31:21;;;;;;;8.47;1.70;;;8.30;99.90;;;;;;5040726;28;20549;-83
2024/01/01 10:33:50;;;;;;;7.07;2.00;;;8.40;99.90;;;;;;5040753;28;20462;-82
2024/01/01 10:36:19;;;;;;;4.47;1.90;;;8.30;99.90;;;;;;5038474;28;20484;-81
2024/01/01 10:38:48;;;;;;;6.10;1.60;;;8.30;99.90;;;;;;5041662;28;20583;-82
2024/01/01 10:41:17;;;;;;;10.63;1.87;;;8.30;99.90;;;;;;5039911;28;20506;-83
2024/01/01 10:43:46;;;;;;;7.10;1.57;;;8.30;99.90;;;;;;5043615;28;20448;-83
2024/01/01 10:46:13;;;;;;;3.80;1.60;;;8.40;99.90;;;;;;5041107;28;20503;-81
2024/01/01 10:48:42;;;;;;;3.47;1.67;;;8.40;99.90;;;;;;5044299;28;20460;-81
2024/01/01 10:51:41;;;;;;;6.20;1.40;;;8.40;99.90;;;;;;5041800;28;20497;-80
2024/01/01 10:54:29;;;;;;;6.90;1.50;;;8.40;99.90;;;;;;5042536;28;20873;-81
2024/01/01 10:57:10;;;;;;;8.23;1.50;;;8.40;99.90;;;;;;5042067;28;20511;-80
2024/01/01 10:59:43;;;;;;;5.63;1.77;;;8.50;99.90;;;;;;5040409;28;20481;-80
2024/01/01 11:02:11;;;;;;;7.73;1.40;;;8.60;99.90;;;;;;5041019;28;20509;-81
2024/01/01 11:04:38;;;;;;;3.73;1.40;;;8.60;99.90;;;;;;5039617;28;20539;-82
2024/01/01 11:07:05;;;;;;;7.43;1.60;;;8.70;99.90;;;;;;5042153;28;20479;-80
2024/01/01 11:09:34;;;;;;;6.70;1.33;;;8.70;99.90;;;;;;5041806;28;20451;-80
2024/01/01 11:12:04;;;;;;;6.90;1.47;;;8.80;99.90;;;;;;5039941;28;20491;-81
2024/01/01 11:14:32;;;;;;;5.33;1.80;;;8.90;99.90;;;;;;5041581;28;20526;-81
2024/01/01 11:17:06;;;;;;;5.27;1.23;;;8.90;99.90;;;;;;5042763;28;20466;-80
2024/01/01 11:19:42;;;;;;;3.67;1.40;;;8.90;99.90;;;;;;5043965;28;20537;-82
2024/01/01 11:22:31;;;;;;;5.50;1.27;;;8.90;99.90;;;;;;5044629;28;20482;-83
2024/01/01 11:25:02;;;;;;;3.40;1.33;;;9.00;99.90;;;;;;5043543;28;20484;-81
2024/01/01 11:27:35;;;;;;;6.33;1.80;;;9.00;99.90;;;;;;5048454;28;20475;-83
2024/01/01 11:30:03;;;;;;;4.73;1.50;;;8.90;99.90;;;;;;5047852;28;20451;-81
2024/01/01 11:32:33;;;;;;;8.57;1.73;;;8.70;99.90;;;;;;5047740;28;20526;-82
2024/01/01 11:35:07;;;;;;;6.40;1.80;;;8.60;99.90;;;;;;5045744;28;20494;-81
2024/01/01 11:37:34;;;;;;;3.83;1.57;;;8.60;99.90;;;;;;5040228;28;20476;-82
2024/01/01 11:40:02;;;;;;;6.20;1.70;;;8.80;99.90;;;;;;5045114;28;20486;-82
2024/01/01 11:42:31;;;;;;;7.20;2.20;;;9.10;99.90;;;;;;5045761;28;20494;-82
2024/01/01 11:45:12;;;;;;;4.20;1.33;;;9.20;99.90;;;;;;5042347;28;20476;-82
2024/01/01 11:47:41;;;;;;;3.03;1.33;;;9.50;99.90;;;;;;5043272;28;20452;-81
2024/01/01 11:50:09;;;;;;;4.90;1.53;;;9.70;99.90;;;;;;5044887;28;20956;-81
2024/01/01 11:52:37;;;;;;;4.27;1.40;;;9.50;99.90;;;;;;5043715;28;20472;-81
2024/01/01 11:55:04;;;;;;;7.77;2.07;;;9.90;99.90;;;;;;5044487;28;20547;-81
2024/01/01 11:57:31;;;;;;;8.33;1.90;;;9.30;99.90;;;;;;5044479;28;20467;-80
2024/01/01 11:59:58;;;;;;;6.70;1.80;;;9.20;99.90;;;;;;5043788;28;21052;-81
2024/01/01 12:02:27;;;;;;;4.53;1.63;;;9.10;99.90;;;;;;5044030;28;20507;-80
2024/01/01 12:04:55;;;;;;;5.73;1.73;;;9.10;99.90;;;;;;5044385;28;20452;-82
2024/01/01 12:07:29;;;;;;;4.50;1.47;;;9.10;99.90;;;;;;5042653;28;20498;-82
2024/01/01 12:10:07;;;;;;;9.23;1.80;;;9.20;99.90;;;;;;5042176;28;20487;-81
2024/01/01 12:12:34;;;;;;;4.53;2.40;;;9.20;99.90;;;;;;5040986;28;20489;-83
2024/01/01 12:15:15;;;;;;;3.20;1.40;;;9.20;99.90;;;;;;5041946;28;20448;-82
2024/01/01 12:17:47;;;;;;;10.27;4.30;;;9.20;99.90;;;;;;5033774;28;20459;-81
2024/01/01 12:20:18;;;;;;;15.97;7.33;;;9.30;99.90;;;;;;5036858;28;20510;-80
2024/01/01 12:22:48;;;;;;;5.20;1.80;;;9.30;99.90;;;;;;5040242;28;20498;-82
2024/01/01 12:25:17;;;;;;;6.17;2.00;;;9.20;99.90;;;;;;5040963;28;20457;-81
2024/01/01 12:27:45;;;;;;;6.20;1.90;;;9.00;99.90;;;;;;5035312;28;20545;-81
2024/01/01 12:30:27;;;;;;;10.57;2.23;;;9.00;99.90;;;;;;5042609;28;20519;-81
2024/01/01 12:33:06;;;;;;;3.70;1.70;;;9.10;99.90;;;;;;5038968;28;20814;-80
2024/01/01 12:35:32;;;;;;;5.10;1.80;;;9.10;99.90;;;;;;5037476;28;20463;-81
2024/01/01 12:37:59;;;;;;;9.23;1.60;;;9.10;99.90;;;;;;5046197;28;20520;-83
2024/01/01 12:40:29;;;;;;;5.10;1.73;;;9.20;99.90;;;;;;5037288;28;21164;-82
2024/01/01 12:42:56;;;;;;;6.70;1.67;;;9.40;99.90;;;;;;5035079;28;20989;-82
2024/01/01 12:45:25;;;;;;;4.53;1.73;;;9.40;99.90;;;;;;5041798;28;20509;-82
2024/01/01 12:47:52;;;;;;;5.53;1.33;;;9.60;99.90;;;;;;5042132;28;20461;-82
2024/01/01 12:50:20;;;;;;;6.80;1.80;;;9.60;99.90;;;;;;5047990;28;20474;-82
2024/01/01 12:52:47;;;;;;;4.33;1.30;;;9.50;99.90;;;;;;5048463;28;20562;-81
2024/01/01 12:55:14;;;;;;;5.70;1.90;;;9.40;99.90;;;;;;5047243;28;20475;-82
2024/01/01 12:57:41;;;;;;;8.47;2.00;;;9.30;99.90;;;;;;5047093;28;20459;-81
2024/01/01 13:00:09;;;;;;;6.43;1.40;;;9.40;99.90;;;;;;5047762;28;20492;-80